BHS3262 MYGF-MYNN
Flight info
| Callsign | BHS3262 |
|---|---|
| Flight time | 0h 27m |
| Altitude | 13000 |
| Route | DCT ZFP BR63V HANKX/N0267F100 BR63V ZQA DCT |
| Aircraft | DH8C/M-SDFGR/S |
Departure
| Time | 2026-04-12 03:03 |
|---|---|
| Airport | Grand Bahama International Airport (MYGF) |
Arrival
| Time | 2026-04-12 03:30 |
|---|---|
| Airport | Lynden Pindling International Airport (MYNN) |
| Time | Latitude | Longitude | Altitude | Speed | Heading |
|---|---|---|---|---|---|
| 2026-04-12 02:57 | 26.54858 | -78.69630 | 12 ft | 0 kts | 91° |
| 2026-04-12 02:59 | 26.54860 | -78.69627 | 12 ft | 1 kts | 41° |
| 2026-04-12 02:59 | 26.54894 | -78.69630 | 12 ft | 7 kts | 343° |
| 2026-04-12 02:59 | 26.54911 | -78.69705 | 12 ft | 13 kts | 271° |
| 2026-04-12 02:59 | 26.54912 | -78.69830 | 12 ft | 18 kts | 271° |
| 2026-04-12 03:00 | 26.54916 | -78.69983 | 12 ft | 21 kts | 271° |
| 2026-04-12 03:00 | 26.54920 | -78.70158 | 12 ft | 23 kts | 271° |
| 2026-04-12 03:00 | 26.54961 | -78.70287 | 12 ft | 16 kts | 301° |
| 2026-04-12 03:00 | 26.54969 | -78.70424 | 12 ft | 19 kts | 272° |
| 2026-04-12 03:01 | 26.54974 | -78.70586 | 12 ft | 22 kts | 272° |
| 2026-04-12 03:01 | 26.54980 | -78.70764 | 12 ft | 24 kts | 272° |
| 2026-04-12 03:01 | 26.54985 | -78.70946 | 12 ft | 18 kts | 274° |
| 2026-04-12 03:01 | 26.55047 | -78.71004 | 12 ft | 13 kts | 4° |
| 2026-04-12 03:02 | 26.55148 | -78.70993 | 12 ft | 16 kts | 44° |
| 2026-04-12 03:02 | 26.55252 | -78.70787 | 12 ft | 65 kts | 58° |
| 2026-04-12 03:02 | 26.55600 | -78.70088 | 44 ft | 130 kts | 61° |
| 2026-04-12 03:02 | 26.56062 | -78.69141 | 497 ft | 147 kts | 63° |
| 2026-04-12 03:03 | 26.56160 | -78.67973 | 976 ft | 165 kts | 105° |
| 2026-04-12 03:03 | 26.55522 | -78.66853 | 1419 ft | 182 kts | 134° |
| 2026-04-12 03:03 | 26.54541 | -78.65932 | 1773 ft | 190 kts | 143° |
| 2026-04-12 03:03 | 26.53449 | -78.65073 | 2187 ft | 196 kts | 145° |
| 2026-04-12 03:04 | 26.52290 | -78.64194 | 2615 ft | 206 kts | 146° |
| 2026-04-12 03:04 | 26.51069 | -78.63273 | 3039 ft | 215 kts | 146° |
| 2026-04-12 03:04 | 26.49825 | -78.62331 | 3450 ft | 223 kts | 146° |
| 2026-04-12 03:04 | 26.48507 | -78.61334 | 3869 ft | 230 kts | 146° |
| 2026-04-12 03:05 | 26.47162 | -78.60317 | 4281 ft | 235 kts | 146° |
| 2026-04-12 03:05 | 26.45807 | -78.59290 | 4686 ft | 240 kts | 146° |
| 2026-04-12 03:05 | 26.44504 | -78.58302 | 5067 ft | 244 kts | 146° |
| 2026-04-12 03:05 | 26.43094 | -78.57236 | 5472 ft | 247 kts | 146° |
| 2026-04-12 03:06 | 26.41670 | -78.56158 | 5876 ft | 249 kts | 146° |
| 2026-04-12 03:06 | 26.40223 | -78.55065 | 6281 ft | 252 kts | 146° |
| 2026-04-12 03:06 | 26.38783 | -78.53977 | 6680 ft | 253 kts | 146° |
| 2026-04-12 03:06 | 26.37320 | -78.52872 | 7082 ft | 255 kts | 146° |
| 2026-04-12 03:07 | 26.35856 | -78.51767 | 7481 ft | 257 kts | 146° |
| 2026-04-12 03:07 | 26.34367 | -78.50643 | 7885 ft | 258 kts | 146° |
| 2026-04-12 03:07 | 26.32872 | -78.49515 | 8287 ft | 260 kts | 146° |
| 2026-04-12 03:07 | 26.31389 | -78.48396 | 8685 ft | 261 kts | 146° |
| 2026-04-12 03:08 | 26.29873 | -78.47253 | 9088 ft | 262 kts | 146° |
| 2026-04-12 03:08 | 26.28369 | -78.46120 | 9487 ft | 263 kts | 146° |
| 2026-04-12 03:08 | 26.26846 | -78.44971 | 9889 ft | 264 kts | 146° |
| 2026-04-12 03:08 | 26.25331 | -78.43831 | 10288 ft | 265 kts | 146° |
| 2026-04-12 03:09 | 26.23811 | -78.42686 | 10686 ft | 266 kts | 146° |
| 2026-04-12 03:09 | 26.22264 | -78.41522 | 11089 ft | 267 kts | 146° |
| 2026-04-12 03:09 | 26.20718 | -78.40358 | 11490 ft | 268 kts | 146° |
| 2026-04-12 03:09 | 26.19178 | -78.39198 | 11889 ft | 269 kts | 146° |
| 2026-04-12 03:10 | 26.17636 | -78.38039 | 12286 ft | 270 kts | 146° |
| 2026-04-12 03:10 | 26.16081 | -78.36871 | 12684 ft | 271 kts | 146° |
| 2026-04-12 03:10 | 26.14507 | -78.35689 | 13086 ft | 273 kts | 146° |
| 2026-04-12 03:10 | 26.12927 | -78.34489 | 13280 ft | 282 kts | 145° |
| 2026-04-12 03:11 | 26.11309 | -78.33184 | 13228 ft | 288 kts | 144° |
| 2026-04-12 03:11 | 26.09666 | -78.31838 | 13232 ft | 295 kts | 144° |
| 2026-04-12 03:11 | 26.08018 | -78.30483 | 13230 ft | 300 kts | 144° |
| 2026-04-12 03:11 | 26.06320 | -78.29086 | 13229 ft | 304 kts | 144° |
| 2026-04-12 03:12 | 26.04610 | -78.27681 | 13228 ft | 307 kts | 144° |
| 2026-04-12 03:12 | 26.02900 | -78.26274 | 13227 ft | 310 kts | 144° |
| 2026-04-12 03:12 | 26.01151 | -78.24837 | 13227 ft | 311 kts | 144° |
| 2026-04-12 03:12 | 25.99397 | -78.23396 | 13226 ft | 312 kts | 144° |
| 2026-04-12 03:13 | 25.97653 | -78.21963 | 13226 ft | 313 kts | 144° |
| 2026-04-12 03:13 | 25.95901 | -78.20525 | 13225 ft | 314 kts | 144° |
| 2026-04-12 03:13 | 25.94164 | -78.19099 | 13225 ft | 314 kts | 144° |
| 2026-04-12 03:13 | 25.92385 | -78.17640 | 13225 ft | 315 kts | 144° |
| 2026-04-12 03:14 | 25.90645 | -78.16213 | 13225 ft | 315 kts | 144° |
| 2026-04-12 03:14 | 25.89041 | -78.14898 | 13225 ft | 315 kts | 144° |
| 2026-04-12 03:14 | 25.87328 | -78.13494 | 13225 ft | 315 kts | 144° |
| 2026-04-12 03:14 | 25.85562 | -78.12048 | 13225 ft | 315 kts | 144° |
| 2026-04-12 03:15 | 25.83797 | -78.10602 | 13225 ft | 315 kts | 144° |
| 2026-04-12 03:15 | 25.82041 | -78.09164 | 13225 ft | 315 kts | 144° |
| 2026-04-12 03:15 | 25.80272 | -78.07717 | 13225 ft | 315 kts | 144° |
| 2026-04-12 03:15 | 25.78514 | -78.06279 | 13225 ft | 315 kts | 144° |
| 2026-04-12 03:16 | 25.76732 | -78.04822 | 13225 ft | 315 kts | 144° |
| 2026-04-12 03:16 | 25.74976 | -78.03387 | 13225 ft | 315 kts | 144° |
| 2026-04-12 03:16 | 25.73222 | -78.01953 | 13225 ft | 315 kts | 144° |
| 2026-04-12 03:16 | 25.71461 | -78.00515 | 13225 ft | 315 kts | 144° |
| 2026-04-12 03:17 | 25.69694 | -77.99072 | 13225 ft | 315 kts | 144° |
| 2026-04-12 03:17 | 25.67920 | -77.97624 | 13225 ft | 315 kts | 144° |
| 2026-04-12 03:17 | 25.66149 | -77.96179 | 13225 ft | 315 kts | 144° |
| 2026-04-12 03:17 | 25.64391 | -77.94745 | 13225 ft | 315 kts | 144° |
| 2026-04-12 03:18 | 25.62634 | -77.93314 | 13225 ft | 315 kts | 144° |
| 2026-04-12 03:18 | 25.60865 | -77.91872 | 13225 ft | 315 kts | 144° |
| 2026-04-12 03:18 | 25.59082 | -77.90419 | 13225 ft | 315 kts | 144° |
| 2026-04-12 03:18 | 25.57319 | -77.89005 | 13224 ft | 315 kts | 146° |
| 2026-04-12 03:19 | 25.55469 | -77.87668 | 13008 ft | 319 kts | 147° |
| 2026-04-12 03:19 | 25.53609 | -77.86349 | 12610 ft | 322 kts | 148° |
| 2026-04-12 03:19 | 25.51687 | -77.85027 | 12212 ft | 324 kts | 148° |
| 2026-04-12 03:19 | 25.49767 | -77.83722 | 11857 ft | 324 kts | 148° |
| 2026-04-12 03:20 | 25.47862 | -77.82432 | 11535 ft | 322 kts | 148° |
| 2026-04-12 03:20 | 25.45960 | -77.81145 | 11215 ft | 321 kts | 148° |
| 2026-04-12 03:20 | 25.44049 | -77.79853 | 10897 ft | 320 kts | 148° |
| 2026-04-12 03:20 | 25.42186 | -77.78593 | 10591 ft | 319 kts | 148° |
| 2026-04-12 03:21 | 25.40288 | -77.77306 | 10285 ft | 317 kts | 148° |
| 2026-04-12 03:21 | 25.38445 | -77.76060 | 9980 ft | 307 kts | 149° |
| 2026-04-12 03:21 | 25.36702 | -77.74882 | 9516 ft | 283 kts | 148° |
| 2026-04-12 03:21 | 25.35073 | -77.73782 | 9062 ft | 264 kts | 149° |
| 2026-04-12 03:22 | 25.33557 | -77.72760 | 8619 ft | 251 kts | 149° |
| 2026-04-12 03:22 | 25.32100 | -77.71779 | 8176 ft | 241 kts | 148° |
| 2026-04-12 03:22 | 25.30693 | -77.70829 | 7806 ft | 238 kts | 148° |
| 2026-04-12 03:22 | 25.29276 | -77.69872 | 7451 ft | 236 kts | 148° |
| 2026-04-12 03:23 | 25.27890 | -77.68938 | 7100 ft | 234 kts | 148° |
| 2026-04-12 03:23 | 25.26487 | -77.67992 | 6797 ft | 243 kts | 149° |
| 2026-04-12 03:23 | 25.25011 | -77.66998 | 6515 ft | 252 kts | 148° |
| 2026-04-12 03:23 | 25.23495 | -77.65975 | 6214 ft | 251 kts | 148° |
| 2026-04-12 03:24 | 25.22065 | -77.65013 | 5820 ft | 238 kts | 148° |
| 2026-04-12 03:24 | 25.20686 | -77.64086 | 5430 ft | 228 kts | 149° |
| 2026-04-12 03:24 | 25.19421 | -77.63084 | 5033 ft | 220 kts | 141° |
| 2026-04-12 03:24 | 25.18243 | -77.62038 | 4637 ft | 214 kts | 139° |
| 2026-04-12 03:25 | 25.17178 | -77.60932 | 4208 ft | 211 kts | 135° |
| 2026-04-12 03:25 | 25.16164 | -77.59808 | 3936 ft | 200 kts | 134° |
| 2026-04-12 03:25 | 25.15226 | -77.58759 | 3783 ft | 183 kts | 135° |
| 2026-04-12 03:25 | 25.14360 | -77.57791 | 3534 ft | 174 kts | 134° |
| 2026-04-12 03:26 | 25.13548 | -77.56884 | 3273 ft | 156 kts | 134° |
| 2026-04-12 03:26 | 25.12832 | -77.56082 | 3000 ft | 139 kts | 134° |
| 2026-04-12 03:26 | 25.12172 | -77.55345 | 2652 ft | 132 kts | 134° |
| 2026-04-12 03:26 | 25.11542 | -77.54641 | 2256 ft | 128 kts | 135° |
| 2026-04-12 03:27 | 25.10938 | -77.53986 | 1986 ft | 112 kts | 135° |
| 2026-04-12 03:27 | 25.10393 | -77.53391 | 1715 ft | 108 kts | 135° |
| 2026-04-12 03:27 | 25.09873 | -77.52811 | 1438 ft | 106 kts | 135° |
| 2026-04-12 03:27 | 25.09353 | -77.52230 | 1222 ft | 106 kts | 135° |
| 2026-04-12 03:28 | 25.08825 | -77.51640 | 1096 ft | 110 kts | 135° |
| 2026-04-12 03:28 | 25.08288 | -77.51039 | 969 ft | 108 kts | 135° |
| 2026-04-12 03:28 | 25.07757 | -77.50446 | 844 ft | 107 kts | 135° |
| 2026-04-12 03:28 | 25.07237 | -77.49865 | 704 ft | 105 kts | 134° |
| 2026-04-12 03:29 | 25.06719 | -77.49284 | 489 ft | 106 kts | 135° |
| 2026-04-12 03:29 | 25.06208 | -77.48716 | 277 ft | 106 kts | 134° |
| 2026-04-12 03:29 | 25.05684 | -77.48131 | 148 ft | 108 kts | 135° |
| 2026-04-12 03:29 | 25.05151 | -77.47536 | 68 ft | 110 kts | 135° |
| 2026-04-12 03:30 | 25.04613 | -77.46941 | 31 ft | 108 kts | 135° |
| 2026-04-12 03:30 | 25.04137 | -77.46410 | 24 ft | 71 kts | 134° |
| 2026-04-12 03:30 | 25.03874 | -77.46115 | 24 ft | 39 kts | 134° |
| 2026-04-12 03:30 | 25.03775 | -77.46001 | 23 ft | 11 kts | 122° |
| 2026-04-12 03:31 | 25.03783 | -77.45915 | 23 ft | 13 kts | 47° |
| 2026-04-12 03:31 | 25.03861 | -77.45858 | 23 ft | 14 kts | 351° |
| 2026-04-12 03:31 | 25.03942 | -77.45931 | 23 ft | 15 kts | 314° |
| 2026-04-12 03:31 | 25.04003 | -77.45999 | 24 ft | 18 kts | 315° |
| 2026-04-12 03:32 | 25.04097 | -77.46104 | 24 ft | 20 kts | 314° |
| 2026-04-12 03:32 | 25.04199 | -77.46219 | 24 ft | 22 kts | 314° |
| 2026-04-12 03:32 | 25.04311 | -77.46343 | 24 ft | 23 kts | 315° |
| 2026-04-12 03:32 | 25.04428 | -77.46471 | 25 ft | 24 kts | 315° |
| 2026-04-12 03:33 | 25.04548 | -77.46603 | 25 ft | 24 kts | 315° |
| 2026-04-12 03:33 | 25.04651 | -77.46719 | 25 ft | 17 kts | 315° |
| 2026-04-12 03:33 | 25.04732 | -77.46711 | 25 ft | 8 kts | 40° |
| 2026-04-12 03:33 | 25.04773 | -77.46668 | 25 ft | 9 kts | 43° |
| 2026-04-12 03:34 | 25.04800 | -77.46639 | 25 ft | 6 kts | 44° |
| 2026-04-12 03:34 | 25.04809 | -77.46630 | 25 ft | 0 kts | 44° |
| 2026-04-12 03:35 | 25.04814 | -77.46620 | 25 ft | 3 kts | 83° |
| 2026-04-12 03:35 | 25.04810 | -77.46581 | 25 ft | 6 kts | 87° |
| 2026-04-12 03:35 | 25.04800 | -77.46536 | 26 ft | 8 kts | 173° |
| 2026-04-12 03:35 | 25.04794 | -77.46536 | 26 ft | 0 kts | 180° |